Data for 12/18/2013

Time Sea-Level Adjusted Pressure Absolute Pressure Temperature Relative Humidity Dew Point   
(mb) (inHg) (mb) (inHg) (C) (F) (%) (C) (F)
00:05 1014 29.94 844 24.92 4.7 40.5 41 -7.5 18.5
00:10 1014 29.94 844 24.92 4.2 39.5 45 -6.7 20
00:15 1014 29.94 844 24.92 3.6 38.5 45 -7.3 18.9
00:20 1014 29.94 843 24.89 3.5 38.3 45 -7.2 19
00:25 1014 29.94 843 24.89 3.6 38.5 45 -7.4 18.7
00:30 1014 29.94 843 24.89 4.1 39.4 42 -7.6 18.3
00:35 1014 29.94 843 24.89 4.1 39.4 43 -7.4 18.8
00:40 1014 29.94 843 24.89 4.4 39.8 41 -7.6 18.3
00:45 1014 29.94 843 24.89 4.6 40.2 41 -7.4 18.6
00:50 1014 29.94 843 24.89 4.9 40.8 41 -7.4 18.6
00:55 1014 29.94 843 24.89 4.3 39.8 44 -6.7 19.9
01:00 1014 29.94 843 24.89 4.3 39.8 41 -7.7 18.2
01:05 1014 29.94 843 24.89 4.2 39.6 44 -7 19.5
01:10 1014 29.94 843 24.89 4.3 39.8 42 -7.4 18.6
01:15 1014 29.94 843 24.89 4.6 40.2 44 -6.8 19.8
01:20 1014 29.94 843 24.89 4.2 39.5 45 -6.8 19.8
01:25 1014 29.94 843 24.89 4 39.3 43 -7.3 18.9
01:30 1014 29.94 843 24.89 5 40.9 37 -8.4 16.9
01:35 1014 29.94 843 24.89 5.5 42 39 -7.2 19
01:40 1014 29.94 843 24.89 4.8 40.7 40 -7.8 18
01:45 1014 29.94 843 24.89 5.4 41.8 36 -8.6 16.6
01:50 1013 29.91 843 24.89 6.5 43.7 33 -8.5 16.7
01:55 1013 29.91 843 24.89 6.8 44.3 33 -8.2 17.2
02:00 1013 29.91 843 24.89 6.6 43.9 36 -7.5 18.4
02:05 1013 29.91 843 24.89 5.8 42.4 38 -7.3 18.9
02:10 1013 29.91 843 24.89 5.1 41.3 39 -7.7 18.2
02:15 1013 29.91 842 24.86 5.5 41.9 37 -8.1 17.5
02:20 1013 29.91 842 24.86 5.5 41.9 40 -7 19.3
02:25 1013 29.91 842 24.86 4.8 40.7 42 -7.1 19.2
02:30 1013 29.91 842 24.86 4.6 40.2 41 -7.7 18.1
02:35 1013 29.91 842 24.86 4.6 40.2 44 -6.8 19.8
02:40 1013 29.91 842 24.86 4.2 39.5 42 -7.6 18.2
02:45 1013 29.91 842 24.86 5.2 41.4 36 -8.7 16.3
02:50 1013 29.91 842 24.86 6.1 42.9 35 -8.3 17.1
02:55 1013 29.91 842 24.86 5.9 42.6 39 -7.1 19.2
03:00 1013 29.91 842 24.86 5.1 41.1 41 -7.1 19.2
03:05 1013 29.91 842 24.86 5 40.9 40 -7.5 18.4
03:10 1013 29.91 842 24.86 4.8 40.6 42 -7 19.4
03:15 1013 29.91 842 24.86 4.4 40 42 -7.3 18.8
03:20 1013 29.91 842 24.86 4.6 40.2 40 -8 17.7
03:25 1013 29.91 842 24.86 5.4 41.7 36 -8.4 16.9
03:30 1013 29.91 842 24.86 5.9 42.6 38 -7.5 18.6
03:35 1013 29.91 842 24.86 5.8 42.4 37 -7.8 18
03:40 1013 29.91 842 24.86 5.8 42.4 37 -7.9 17.8
03:45 1013 29.91 842 24.86 5.6 42.1 41 -6.5 20.4
03:50 1013 29.91 842 24.86 5.2 41.4 39 -7.7 18.2
03:55 1013 29.91 842 24.86 5.8 42.5 37 -7.9 17.7
04:00 1013 29.91 842 24.86 5.7 42.3 38 -7.5 18.6
04:05 1013 29.91 842 24.86 5.6 42.1 40 -6.9 19.6
04:10 1013 29.91 842 24.86 5.6 42 36 -8.2 17.2
04:15 1013 29.91 842 24.86 5.8 42.4 36 -8.2 17.3
04:20 1013 29.91 842 24.86 6.2 43.1 35 -8.1 17.5
04:25 1013 29.91 842 24.86 6 42.8 38 -7.2 19
04:30 1013 29.91 842 24.86 4.7 40.5 42 -7.1 19.1
04:35 1013 29.91 842 24.86 4.9 40.8 41 -7.2 19
04:40 1013 29.91 842 24.86 5 40.9 37 -8.6 16.4
04:45 1013 29.91 842 24.86 6 42.8 35 -8.2 17.3
04:50 1013 29.91 842 24.86 6.5 43.7 32 -9.2 15.4
04:55 1013 29.91 842 24.86 6.6 43.9 33 -8.4 16.8
05:00 1013 29.91 842 24.86 6.5 43.7 34 -8.4 16.8
05:05 1013 29.91 842 24.86 5.8 42.4 43 -5.9 21.4
05:10 1013 29.91 842 24.86 4.6 40.3 39 -8.2 17.2
05:15 1013 29.91 842 24.86 5.2 41.3 41 -7 19.4
05:20 1013 29.91 842 24.86 5.1 41.3 37 -8.4 16.9
05:25 1013 29.91 842 24.86 5.4 41.8 39 -7.4 18.7
05:30 1013 29.91 842 24.86 5.1 41.2 37 -8.3 17
05:35 1013 29.91 842 24.86 5.5 41.9 36 -8.5 16.7
05:40 1013 29.91 842 24.86 5.9 42.5 39 -7 19.4
05:45 1013 29.91 842 24.86 4.6 40.3 39 -8.1 17.4
05:50 1013 29.91 842 24.86 4.9 40.9 41 -7.4 18.7
05:55 1012 29.88 842 24.86 4.5 40.1 46 -6.2 20.8
06:00 1012 29.88 842 24.86 3.5 38.4 50 -5.9 21.4
06:05 1012 29.88 842 24.86 4.2 39.5 38 -9 15.8
06:10 1012 29.88 842 24.86 5.4 41.7 39 -7.6 18.2
06:15 1012 29.88 842 24.86 4.5 40.1 49 -5.2 22.6
06:20 1012 29.88 842 24.86 4.2 39.5 47 -6.2 20.9
06:25 1012 29.88 842 24.86 3.8 38.9 43 -7.7 18.2
06:30 1012 29.88 842 24.86 4.5 40.2 38 -8.5 16.7
06:35 1012 29.88 842 24.86 4.7 40.5 48 -5.4 22.2
06:40 1012 29.88 841 24.83 3.6 38.6 49 -6.1 21
06:45 1012 29.88 841 24.83 3.2 37.7 49 -6.5 20.2
06:50 1012 29.88 841 24.83 3.5 38.4 39 -9 15.8
06:55 1012 29.88 841 24.83 4.6 40.2 41 -7.6 18.3
07:00 1012 29.88 841 24.83 3.8 38.9 47 -6.6 20.1
07:05 1012 29.88 841 24.83 3.2 37.7 49 -6.6 20.2
07:10 1012 29.88 841 24.83 3.1 37.5 42 -8.6 16.6
07:15 1012 29.88 841 24.83 4.3 39.8 36 -9.5 14.9
07:20 1012 29.88 841 24.83 5.1 41.2 42 -6.6 20
07:25 1012 29.88 841 24.83 4.1 39.3 42 -7.7 18.2
07:30 1012 29.88 841 24.83 3.9 38.9 43 -7.5 18.5
07:35 1012 29.88 841 24.83 3.6 38.4 45 -7.3 18.9
07:40 1012 29.88 841 24.83 3.5 38.3 42 -8.2 17.2
07:45 1012 29.88 841 24.83 3.8 38.9 44 -7.4 18.6
07:50 1012 29.88 841 24.83 3.7 38.6 42 -8.2 17.3
07:55 1012 29.88 841 24.83 3.8 38.9 46 -6.7 19.9
08:00 1012 29.88 841 24.83 3.3 37.9 47 -7.1 19.3
08:05 1012 29.88 841 24.83 3.2 37.7 48 -6.9 19.6
08:10 1012 29.88 841 24.83 2.9 37.1 48 -7.2 19.1
08:15 1012 29.88 841 24.83 3.2 37.7 43 -8.2 17.2
08:20 1012 29.88 841 24.83 3.7 38.7 49 -5.9 21.3
08:25 1012 29.88 841 24.83 3.1 37.6 48 -6.8 19.8
08:30 1012 29.88 841 24.83 3.1 37.6 46 -7.5 18.5
08:35 1012 29.88 841 24.83 3.5 38.3 41 -8.5 16.7
08:40 1012 29.88 841 24.83 4.2 39.6 42 -7.7 18.2
08:45 1012 29.88 841 24.83 3.8 38.9 41 -8.2 17.3
08:50 1012 29.88 841 24.83 4 39.3 41 -7.9 17.8
08:55 1012 29.88 841 24.83 4.5 40.1 35 -9.8 14.4
09:00 1012 29.88 841 24.83 5.5 42 33 -9.5 14.8
09:05 1012 29.88 841 24.83 6 42.8 32 -9.5 14.9
09:10 1012 29.88 841 24.83 6.1 43 31 -9.6 14.7
09:15 1012 29.88 841 24.83 6.1 42.9 32 -9.5 14.8
09:20 1012 29.88 841 24.83 5.9 42.6 33 -9.2 15.5
09:25 1012 29.88 841 24.83 5.6 42.1 38 -7.5 18.4
09:30 1012 29.88 841 24.83 4.7 40.5 38 -8.3 17.1
09:35 1012 29.88 841 24.83 4.5 40.1 37 -8.9 15.9
09:40 1012 29.88 841 24.83 5.1 41.1 35 -9.3 15.3
09:45 1012 29.88 841 24.83 5.4 41.8 33 -9.6 14.8
09:50 1012 29.88 841 24.83 5.6 42.1 32 -9.8 14.3
09:55 1012 29.88 841 24.83 5.7 42.3 33 -9.4 15.2
10:00 1012 29.88 841 24.83 5.6 42.2 39 -7.3 18.8
10:05 1012 29.88 841 24.83 5 41 39 -7.8 18
10:10 1012 29.88 841 24.83 4.9 40.9 36 -8.8 16.2
10:15 1012 29.88 841 24.83 5.2 41.3 36 -8.7 16.3
10:20 1012 29.88 841 24.83 5.4 41.7 34 -9.3 15.2
10:25 1012 29.88 841 24.83 5.6 42.1 34 -9.2 15.5
10:30 1012 29.88 841 24.83 5.6 42.1 34 -9.1 15.6
10:35 1012 29.88 841 24.83 5.6 42.1 38 -7.6 18.3
10:40 1012 29.88 841 24.83 5.3 41.6 39 -7.6 18.3
10:45 1012 29.88 841 24.83 4.6 40.3 39 -8.2 17.3
10:50 1012 29.88 841 24.83 4.7 40.5 35 -9.4 15.2
10:55 1012 29.88 841 24.83 5.2 41.3 42 -6.7 19.9
11:00 1012 29.88 841 24.83 4.2 39.6 40 -8.1 17.4
11:05 1012 29.88 841 24.83 4.5 40 38 -8.7 16.4
11:10 1012 29.88 841 24.83 4.8 40.6 40 -7.6 18.3
11:15 1012 29.88 841 24.83 4.6 40.2 38 -8.4 16.8
11:20 1012 29.88 841 24.83 4.7 40.5 36 -9.2 15.4
11:25 1012 29.88 841 24.83 5 41.1 39 -7.8 17.9
11:30 1012 29.88 841 24.83 4.6 40.2 36 -9.2 15.5
11:35 1012 29.88 841 24.83 5 41 34 -9.6 14.8
11:40 1012 29.88 841 24.83 5.2 41.4 33 -9.9 14.2
11:45 1012 29.88 841 24.83 5.3 41.6 33 -9.8 14.3
11:50 1012 29.88 841 24.83 5.3 41.6 33 -9.6 14.8
11:55 1012 29.88 841 24.83 5.6 42 34 -9.2 15.4
12:00 1012 29.88 841 24.83 5.4 41.8 34 -9.3 15.2
12:05 1012 29.88 841 24.83 5.8 42.4 31 -10 13.9
12:10 1012 29.88 841 24.83 6 42.9 30 -10.1 13.8
12:15 1011 29.85 841 24.83 6.2 43.2 31 -9.7 14.6
12:20 1011 29.85 840 24.81 6.5 43.7 31 -9.3 15.3
12:25 1011 29.85 840 24.81 6.5 43.7 34 -8.2 17.2
12:30 1011 29.85 840 24.81 5.8 42.5 36 -8.1 17.4
12:35 1011 29.85 840 24.81 5.6 42.1 35 -8.8 16.2
12:40 1011 29.85 840 24.81 5.8 42.4 32 -9.6 14.7
12:45 1011 29.85 840 24.81 6.2 43.1 32 -9.4 15.1
12:50 1011 29.85 840 24.81 6.3 43.4 32 -9.2 15.5
12:55 1011 29.85 840 24.81 6.3 43.4 33 -8.9 15.9
13:00 1010 29.83 840 24.81 6.2 43.2 34 -8.5 16.6
13:05 1010 29.83 840 24.81 6.1 42.9 37 -7.6 18.3
13:10 1010 29.83 840 24.81 6 42.9 39 -6.9 19.5
13:15 1010 29.83 840 24.81 5.8 42.4 39 -7.3 18.9
13:20 1010 29.83 839 24.78 5.6 42 33 -9.6 14.8
13:25 1010 29.83 839 24.78 5.8 42.5 38 -7.3 18.9
13:30 1010 29.83 839 24.78 5.9 42.5 34 -9 15.9
13:35 1010 29.83 839 24.78 6.2 43.2 32 -9.2 15.4
13:40 1010 29.83 839 24.78 6.4 43.5 36 -7.6 18.3
13:45 1010 29.83 839 24.78 6.2 43.2 34 -8.5 16.7
13:50 1010 29.83 839 24.78 6.5 43.6 32 -9 15.8
13:55 1010 29.83 839 24.78 6.6 43.9 32 -8.8 16.2
14:00 1010 29.83 839 24.78 6.6 43.8 33 -8.6 16.5
14:05 1010 29.83 839 24.78 6.8 44.2 33 -8.6 16.6
14:10 1010 29.83 839 24.78 6.7 44.1 32 -8.8 16.2
14:15 1010 29.83 839 24.78 6.9 44.4 31 -8.9 15.9
14:20 1009 29.8 839 24.78 7.1 44.8 32 -8.3 17
14:25 1009 29.8 839 24.78 7 44.6 33 -8.2 17.3
14:30 1009 29.8 838 24.75 6.5 43.7 33 -8.5 16.7
14:35 1009 29.8 838 24.75 6.3 43.3 33 -8.6 16.5
14:40 1009 29.8 838 24.75 6.4 43.6 33 -8.8 16.2
14:45 1009 29.8 838 24.75 6.6 43.9 36 -7.3 18.9
14:50 1009 29.8 838 24.75 6 42.8 38 -7.3 18.9
14:55 1009 29.8 838 24.75 5.7 42.3 37 -7.9 17.8
15:00 1009 29.8 838 24.75 5.9 42.6 37 -7.6 18.3
15:05 1009 29.8 838 24.75 5.9 42.7 36 -7.9 17.7
15:10 1009 29.8 838 24.75 6 42.9 37 -7.7 18.1
15:15 1009 29.8 838 24.75 6 42.8 36 -7.9 17.8
15:20 1009 29.8 838 24.75 6.3 43.3 33 -8.9 15.9
15:25 1009 29.8 838 24.75 6.8 44.2 31 -9.3 15.2
15:30 1009 29.8 838 24.75 7 44.7 31 -8.8 16.2
15:35 1009 29.8 838 24.75 7.2 45 31 -8.9 15.9
15:40 1009 29.8 838 24.75 7.2 45 32 -8.3 17
15:45 1008 29.77 838 24.75 7 44.7 33 -8.1 17.4
15:50 1009 29.8 838 24.75 6.9 44.5 31 -8.9 15.9
15:55 1009 29.8 838 24.75 7.1 44.7 32 -8.7 16.4
16:00 1009 29.8 838 24.75 7.2 44.9 32 -8.6 16.4
16:05 1008 29.77 838 24.75 7.2 44.9 31 -8.7 16.3
16:10 1008 29.77 838 24.75 7.1 44.8 32 -8.4 16.8
16:15 1008 29.77 838 24.75 7 44.6 34 -7.8 18
16:20 1009 29.8 838 24.75 6.8 44.2 34 -7.9 17.8
16:25 1008 29.77 838 24.75 6.8 44.3 33 -8.3 17
16:30 1008 29.77 838 24.75 6.9 44.5 33 -8.2 17.2
16:35 1008 29.77 838 24.75 7 44.5 33 -8.1 17.4
16:40 1008 29.77 838 24.75 7.1 44.8 31 -8.9 16
16:45 1008 29.77 838 24.75 7.3 45.2 31 -8.7 16.4
16:50 1009 29.8 838 24.75 7.4 45.2 32 -8.4 16.9
16:55 1009 29.8 838 24.75 7.2 45 32 -8.2 17.2
17:00 1009 29.8 838 24.75 7 44.7 33 -8.1 17.4
17:05 1009 29.8 838 24.75 6.8 44.3 34 -7.9 17.8
17:10 1009 29.8 838 24.75 6.7 44 35 -7.6 18.3
17:15 1009 29.8 838 24.75 6.6 43.8 36 -7.5 18.6
17:20 1009 29.8 838 24.75 6.5 43.8 36 -7.5 18.6
17:25 1009 29.8 838 24.75 6.6 43.9 35 -7.7 18.2
17:30 1008 29.77 838 24.75 6.6 43.8 36 -7.3 18.8
17:35 1008 29.77 838 24.75 6.5 43.6 36 -7.4 18.7
17:40 1008 29.77 838 24.75 6.5 43.7 36 -7.7 18.2
17:45 1008 29.77 838 24.75 6.5 43.6 36 -7.4 18.7
17:50 1008 29.77 838 24.75 6.4 43.5 37 -7.2 19.1
17:55 1008 29.77 838 24.75 6.2 43.2 38 -7.1 19.2
18:00 1008 29.77 838 24.75 6.1 43 37 -7.4 18.6
18:05 1008 29.77 838 24.75 6.1 43 37 -7.5 18.6
18:10 1008 29.77 838 24.75 6.1 43 37 -7.6 18.4
18:15 1008 29.77 838 24.75 6 42.7 39 -6.8 19.7
18:20 1008 29.77 838 24.75 5.6 42.1 40 -6.9 19.5
18:25 1008 29.77 837 24.72 5.5 42 39 -7.4 18.7
18:30 1008 29.77 837 24.72 5.7 42.2 38 -7.6 18.3
18:35 1008 29.77 837 24.72 5.8 42.4 37 -7.9 17.8
18:40 1008 29.77 837 24.72 6 42.7 36 -7.9 17.9
18:45 1008 29.77 837 24.72 6.1 43 35 -8.1 17.5
18:50 1008 29.77 837 24.72 6 42.9 37 -7.5 18.5
18:55 1008 29.77 837 24.72 6 42.7 38 -7.3 18.8
19:00 1008 29.77 837 24.72 6 42.8 38 -7.3 18.9
19:05 1008 29.77 837 24.72 6.1 43 37 -7.6 18.4
19:10 1008 29.77 837 24.72 6.2 43.2 37 -7.4 18.6
19:15 1008 29.77 837 24.72 6.1 43 41 -6 21.2
19:20 1008 29.77 837 24.72 5.5 41.9 43 -6.1 21
19:25 1008 29.77 837 24.72 5.4 41.7 42 -6.6 20.1
19:30 1008 29.77 837 24.72 5.4 41.8 41 -6.7 19.9
19:35 1008 29.77 837 24.72 5.4 41.7 41 -6.8 19.7
19:40 1008 29.77 837 24.72 5.2 41.4 41 -7 19.4
19:45 1008 29.77 837 24.72 5.1 41.2 41 -7.1 19.3
19:50 1008 29.77 837 24.72 5.1 41.2 44 -6 21.2
19:55 1008 29.77 837 24.72 5 41 43 -6.6 20.1
20:00 1008 29.77 837 24.72 5.3 41.5 41 -6.9 19.6
20:05 1008 29.77 837 24.72 5.7 42.2 40 -6.8 19.8
20:10 1008 29.77 837 24.72 5.6 42.1 42 -6.4 20.4
20:15 1008 29.77 837 24.72 5.6 42.1 45 -5.5 22.1
20:20 1008 29.77 837 24.72 5.1 41.1 44 -6.3 20.6
20:25 1008 29.77 837 24.72 5.4 41.6 43 -6.3 20.7
20:30 1008 29.77 837 24.72 5.4 41.7 45 -5.7 21.7
20:35 1008 29.77 837 24.72 5.1 41.3 45 -5.9 21.3
20:40 1008 29.77 837 24.72 5.1 41.1 45 -6 21.2
20:45 1008 29.77 837 24.72 5 40.9 42 -6.9 19.6
20:50 1008 29.77 837 24.72 5.1 41.1 42 -6.9 19.6
20:55 1008 29.77 837 24.72 5 40.9 43 -6.5 20.3
21:00 1008 29.77 837 24.72 4.8 40.6 42 -6.9 19.6
21:05 1008 29.77 837 24.72 4.6 40.3 44 -6.5 20.3
21:10 1008 29.77 837 24.72 4.3 39.7 45 -6.5 20.2
21:15 1008 29.77 837 24.72 4 39.3 46 -6.5 20.3
21:20 1008 29.77 837 24.72 3.9 39 47 -6.4 20.6
21:25 1008 29.77 837 24.72 3.7 38.7 47 -6.5 20.4
21:30 1008 29.77 837 24.72 3.7 38.6 48 -6.3 20.7
21:35 1008 29.77 837 24.72 3.6 38.5 48 -6.4 20.4
21:40 1008 29.77 837 24.72 3.6 38.5 49 -6.2 20.8
21:45 1008 29.77 837 24.72 3.5 38.4 51 -5.6 21.8
21:50 1008 29.77 837 24.72 3.4 38.1 51 -5.9 21.4
21:55 1008 29.77 837 24.72 3.3 38 51 -5.9 21.4
22:00 1008 29.77 837 24.72 3.4 38.1 50 -6.1 20.9
22:05 1008 29.77 837 24.72 3.4 38.2 50 -6.1 21.1
22:10 1008 29.77 837 24.72 3.4 38.2 52 -5.6 21.9
22:15 1008 29.77 837 24.72 3.3 38 52 -5.7 21.8
22:20 1008 29.77 837 24.72 3.3 37.9 53 -5.3 22.4
22:25 1008 29.77 838 24.75 3.3 37.9 55 -4.9 23.1
22:30 1009 29.8 838 24.75 3.3 37.9 56 -4.6 23.8
22:35 1009 29.8 838 24.75 3.3 37.9 61 -3.6 25.6
22:40 1009 29.8 838 24.75 3.1 37.5 65 -2.8 26.9
22:45 1009 29.8 838 24.75 2.7 36.9 67 -2.8 27
22:50 1009 29.8 838 24.75 2.5 36.4 71 -2.3 27.9
22:55 1009 29.8 838 24.75 2.1 35.7 74 -2.1 28.3
23:00 1009 29.8 838 24.75 1.8 35.3 75 -2.1 28.2
23:05 1009 29.8 838 24.75 1.7 35 77 -2 28.4
23:10 1009 29.8 838 24.75 1.5 34.8 80 -1.6 29.1
23:15 1009 29.8 838 24.75 1.3 34.4 81 -1.5 29.3
23:20 1009 29.8 838 24.75 1.2 34.1 83 -1.4 29.4
23:25 1009 29.8 838 24.75 1.1 34 83 -1.5 29.3
23:30 1009 29.8 838 24.75 1.1 33.9 83 -1.6 29.2
23:35 1009 29.8 838 24.75 1.1 33.9 83 -1.6 29.2
23:40 1009 29.8 838 24.75 1 33.8 86 -1.1 30
23:45 1009 29.8 838 24.75 0.8 33.4 88 -1 30.3
23:50 1009 29.8 838 24.75 0.6 33.1 90 -0.9 30.4
23:55 1009 29.8 838 24.75 0.4 32.8 91 -0.9 30.4
24:00 1009 29.8 838 24.75 0.1 32.3 92 -1 30.3